sensor_id;sensor_type;location;lat;lon;timestamp;P1;durP1;ratioP1;P2;durP2;ratioP2
30020;SDS011;16861;52.294;7.760;2023-04-24T00:01:03;1.95;;;1.67;;
30020;SDS011;16861;52.294;7.760;2023-04-24T00:03:29;2.70;;;1.70;;
30020;SDS011;16861;52.294;7.760;2023-04-24T00:05:56;2.45;;;1.48;;
30020;SDS011;16861;52.294;7.760;2023-04-24T00:08:22;2.03;;;1.77;;
30020;SDS011;16861;52.294;7.760;2023-04-24T00:10:49;2.03;;;1.90;;
30020;SDS011;16861;52.294;7.760;2023-04-24T00:13:16;2.35;;;1.55;;
30020;SDS011;16861;52.294;7.760;2023-04-24T00:15:42;2.20;;;1.63;;
30020;SDS011;16861;52.294;7.760;2023-04-24T00:18:09;2.60;;;1.40;;
30020;SDS011;16861;52.294;7.760;2023-04-24T00:20:35;1.67;;;1.58;;
30020;SDS011;16861;52.294;7.760;2023-04-24T00:23:02;2.90;;;1.80;;
30020;SDS011;16861;52.294;7.760;2023-04-24T00:25:29;1.77;;;1.35;;
30020;SDS011;16861;52.294;7.760;2023-04-24T00:27:55;2.33;;;1.40;;
30020;SDS011;16861;52.294;7.760;2023-04-24T00:30:22;3.90;;;1.70;;
30020;SDS011;16861;52.294;7.760;2023-04-24T00:32:48;1.58;;;1.48;;
30020;SDS011;16861;52.294;7.760;2023-04-24T00:35:15;2.17;;;1.67;;
30020;SDS011;16861;52.294;7.760;2023-04-24T00:37:41;4.82;;;1.58;;
30020;SDS011;16861;52.294;7.760;2023-04-24T00:40:08;2.22;;;2.03;;
30020;SDS011;16861;52.294;7.760;2023-04-24T00:42:34;3.28;;;2.10;;
30020;SDS011;16861;52.294;7.760;2023-04-24T00:45:01;4.43;;;2.20;;
30020;SDS011;16861;52.294;7.760;2023-04-24T00:47:29;2.50;;;2.30;;
30020;SDS011;16861;52.294;7.760;2023-04-24T00:49:56;5.97;;;2.47;;
30020;SDS011;16861;52.294;7.760;2023-04-24T00:52:22;3.35;;;2.58;;
30020;SDS011;16861;52.294;7.760;2023-04-24T00:54:50;2.90;;;2.50;;
30020;SDS011;16861;52.294;7.760;2023-04-24T00:57:16;3.88;;;2.58;;
30020;SDS011;16861;52.294;7.760;2023-04-24T00:59:43;2.75;;;2.38;;
30020;SDS011;16861;52.294;7.760;2023-04-24T01:02:10;4.03;;;2.92;;
30020;SDS011;16861;52.294;7.760;2023-04-24T01:04:38;3.13;;;2.72;;
30020;SDS011;16861;52.294;7.760;2023-04-24T01:07:05;3.90;;;2.95;;
30020;SDS011;16861;52.294;7.760;2023-04-24T01:09:37;3.85;;;3.03;;
30020;SDS011;16861;52.294;7.760;2023-04-24T01:12:08;3.03;;;2.83;;
30020;SDS011;16861;52.294;7.760;2023-04-24T01:14:35;3.25;;;2.90;;
30020;SDS011;16861;52.294;7.760;2023-04-24T01:17:02;3.17;;;2.88;;
30020;SDS011;16861;52.294;7.760;2023-04-24T01:19:29;5.15;;;3.10;;
30020;SDS011;16861;52.294;7.760;2023-04-24T01:21:56;3.80;;;3.00;;
30020;SDS011;16861;52.294;7.760;2023-04-24T01:24:25;3.05;;;2.75;;
30020;SDS011;16861;52.294;7.760;2023-04-24T01:26:51;5.95;;;3.70;;
30020;SDS011;16861;52.294;7.760;2023-04-24T01:29:18;4.40;;;3.60;;
30020;SDS011;16861;52.294;7.760;2023-04-24T01:31:45;3.45;;;3.15;;
30020;SDS011;16861;52.294;7.760;2023-04-24T01:34:12;3.72;;;3.22;;
30020;SDS011;16861;52.294;7.760;2023-04-24T01:36:39;4.07;;;3.67;;
30020;SDS011;16861;52.294;7.760;2023-04-24T01:39:07;3.75;;;3.22;;
30020;SDS011;16861;52.294;7.760;2023-04-24T01:41:33;5.82;;;4.07;;
30020;SDS011;16861;52.294;7.760;2023-04-24T01:44:00;4.15;;;3.72;;
30020;SDS011;16861;52.294;7.760;2023-04-24T01:46:27;5.68;;;4.18;;
30020;SDS011;16861;52.294;7.760;2023-04-24T01:48:54;4.15;;;3.75;;
30020;SDS011;16861;52.294;7.760;2023-04-24T01:51:20;6.03;;;3.60;;
30020;SDS011;16861;52.294;7.760;2023-04-24T01:53:47;5.35;;;3.70;;
30020;SDS011;16861;52.294;7.760;2023-04-24T01:56:13;4.03;;;3.42;;
30020;SDS011;16861;52.294;7.760;2023-04-24T01:58:41;4.18;;;3.75;;
30020;SDS011;16861;52.294;7.760;2023-04-24T02:01:07;7.30;;;4.00;;
30020;SDS011;16861;52.294;7.760;2023-04-24T02:03:34;4.50;;;3.97;;
30020;SDS011;16861;52.294;7.760;2023-04-24T02:06:00;4.03;;;3.53;;
30020;SDS011;16861;52.294;7.760;2023-04-24T02:08:27;4.55;;;3.70;;
30020;SDS011;16861;52.294;7.760;2023-04-24T02:10:53;4.30;;;3.90;;
30020;SDS011;16861;52.294;7.760;2023-04-24T02:13:19;4.68;;;3.75;;
30020;SDS011;16861;52.294;7.760;2023-04-24T02:15:46;4.30;;;3.90;;
30020;SDS011;16861;52.294;7.760;2023-04-24T02:18:12;4.22;;;3.83;;
30020;SDS011;16861;52.294;7.760;2023-04-24T02:20:39;6.32;;;4.03;;
30020;SDS011;16861;52.294;7.760;2023-04-24T02:23:05;3.67;;;3.38;;
30020;SDS011;16861;52.294;7.760;2023-04-24T02:25:32;3.80;;;3.35;;
30020;SDS011;16861;52.294;7.760;2023-04-24T02:27:59;6.00;;;3.40;;
30020;SDS011;16861;52.294;7.760;2023-04-24T02:30:25;6.32;;;3.50;;
30020;SDS011;16861;52.294;7.760;2023-04-24T02:32:52;4.85;;;3.50;;
30020;SDS011;16861;52.294;7.760;2023-04-24T02:35:18;4.00;;;3.60;;
30020;SDS011;16861;52.294;7.760;2023-04-24T02:37:45;3.97;;;2.92;;
30020;SDS011;16861;52.294;7.760;2023-04-24T02:40:11;4.20;;;3.53;;
30020;SDS011;16861;52.294;7.760;2023-04-24T02:42:38;5.65;;;3.45;;
30020;SDS011;16861;52.294;7.760;2023-04-24T02:45:04;5.13;;;3.63;;
30020;SDS011;16861;52.294;7.760;2023-04-24T02:47:31;5.00;;;3.30;;
30020;SDS011;16861;52.294;7.760;2023-04-24T02:49:58;6.07;;;3.55;;
30020;SDS011;16861;52.294;7.760;2023-04-24T02:52:24;8.05;;;3.20;;
30020;SDS011;16861;52.294;7.760;2023-04-24T02:54:50;4.85;;;3.80;;
30020;SDS011;16861;52.294;7.760;2023-04-24T02:57:17;3.47;;;3.05;;
30020;SDS011;16861;52.294;7.760;2023-04-24T02:59:43;3.25;;;2.85;;
30020;SDS011;16861;52.294;7.760;2023-04-24T03:02:10;4.40;;;3.03;;
30020;SDS011;16861;52.294;7.760;2023-04-24T03:04:36;3.80;;;3.38;;
30020;SDS011;16861;52.294;7.760;2023-04-24T03:07:03;3.35;;;3.05;;
30020;SDS011;16861;52.294;7.760;2023-04-24T03:09:30;5.22;;;3.00;;
30020;SDS011;16861;52.294;7.760;2023-04-24T03:11:57;4.18;;;3.25;;
30020;SDS011;16861;52.294;7.760;2023-04-24T03:14:24;4.70;;;3.58;;
30020;SDS011;16861;52.294;7.760;2023-04-24T03:16:51;3.85;;;3.30;;
30020;SDS011;16861;52.294;7.760;2023-04-24T03:19:17;4.03;;;3.28;;
30020;SDS011;16861;52.294;7.760;2023-04-24T03:21:43;4.60;;;3.60;;
30020;SDS011;16861;52.294;7.760;2023-04-24T03:24:10;7.53;;;3.72;;
30020;SDS011;16861;52.294;7.760;2023-04-24T03:26:36;5.28;;;3.85;;
30020;SDS011;16861;52.294;7.760;2023-04-24T03:31:53;6.90;;;4.40;;
30020;SDS011;16861;52.294;7.760;2023-04-24T03:34:19;6.88;;;4.65;;
30020;SDS011;16861;52.294;7.760;2023-04-24T03:36:46;5.90;;;4.82;;
30020;SDS011;16861;52.294;7.760;2023-04-24T03:39:16;7.00;;;4.80;;
30020;SDS011;16861;52.294;7.760;2023-04-24T03:41:42;6.43;;;4.97;;
30020;SDS011;16861;52.294;7.760;2023-04-24T03:44:09;6.57;;;5.13;;
30020;SDS011;16861;52.294;7.760;2023-04-24T03:46:35;8.55;;;5.63;;
30020;SDS011;16861;52.294;7.760;2023-04-24T03:49:02;8.05;;;5.53;;
30020;SDS011;16861;52.294;7.760;2023-04-24T03:51:28;10.25;;;6.28;;
30020;SDS011;16861;52.294;7.760;2023-04-24T03:53:56;7.50;;;6.05;;
30020;SDS011;16861;52.294;7.760;2023-04-24T03:56:23;7.45;;;5.40;;
30020;SDS011;16861;52.294;7.760;2023-04-24T03:58:49;10.63;;;6.32;;
30020;SDS011;16861;52.294;7.760;2023-04-24T04:01:16;8.60;;;6.38;;
30020;SDS011;16861;52.294;7.760;2023-04-24T04:03:42;10.80;;;7.18;;
30020;SDS011;16861;52.294;7.760;2023-04-24T04:06:09;7.32;;;5.93;;
30020;SDS011;16861;52.294;7.760;2023-04-24T04:08:37;8.70;;;7.40;;
30020;SDS011;16861;52.294;7.760;2023-04-24T04:11:03;9.50;;;7.82;;
30020;SDS011;16861;52.294;7.760;2023-04-24T04:13:30;9.02;;;7.85;;
30020;SDS011;16861;52.294;7.760;2023-04-24T04:15:57;11.77;;;8.50;;
30020;SDS011;16861;52.294;7.760;2023-04-24T04:18:24;10.88;;;8.63;;
30020;SDS011;16861;52.294;7.760;2023-04-24T04:20:50;11.80;;;8.70;;
30020;SDS011;16861;52.294;7.760;2023-04-24T04:23:17;12.43;;;9.68;;
30020;SDS011;16861;52.294;7.760;2023-04-24T04:25:43;13.88;;;9.63;;
30020;SDS011;16861;52.294;7.760;2023-04-24T04:28:10;11.38;;;10.18;;
30020;SDS011;16861;52.294;7.760;2023-04-24T04:30:36;14.60;;;10.82;;
30020;SDS011;16861;52.294;7.760;2023-04-24T04:33:04;13.13;;;11.27;;
30020;SDS011;16861;52.294;7.760;2023-04-24T04:35:31;15.38;;;12.13;;
30020;SDS011;16861;52.294;7.760;2023-04-24T04:37:57;13.38;;;11.05;;
30020;SDS011;16861;52.294;7.760;2023-04-24T04:40:24;16.23;;;13.05;;
30020;SDS011;16861;52.294;7.760;2023-04-24T04:42:52;15.40;;;12.35;;
30020;SDS011;16861;52.294;7.760;2023-04-24T04:45:19;17.77;;;13.02;;
30020;SDS011;16861;52.294;7.760;2023-04-24T04:47:46;20.50;;;13.07;;
30020;SDS011;16861;52.294;7.760;2023-04-24T04:50:14;15.75;;;12.68;;
30020;SDS011;16861;52.294;7.760;2023-04-24T04:52:40;15.38;;;12.68;;
30020;SDS011;16861;52.294;7.760;2023-04-24T04:55:07;16.42;;;13.05;;
30020;SDS011;16861;52.294;7.760;2023-04-24T04:57:34;16.40;;;12.52;;
30020;SDS011;16861;52.294;7.760;2023-04-24T05:00:00;16.25;;;13.20;;
30020;SDS011;16861;52.294;7.760;2023-04-24T05:02:27;14.57;;;11.48;;
30020;SDS011;16861;52.294;7.760;2023-04-24T05:04:54;16.73;;;11.95;;
30020;SDS011;16861;52.294;7.760;2023-04-24T05:07:21;15.68;;;12.38;;
30020;SDS011;16861;52.294;7.760;2023-04-24T05:09:48;20.42;;;13.07;;
30020;SDS011;16861;52.294;7.760;2023-04-24T05:12:14;16.17;;;12.50;;
30020;SDS011;16861;52.294;7.760;2023-04-24T05:14:41;17.35;;;11.90;;
30020;SDS011;16861;52.294;7.760;2023-04-24T05:17:08;16.88;;;12.43;;
30020;SDS011;16861;52.294;7.760;2023-04-24T05:19:34;15.73;;;11.63;;
30020;SDS011;16861;52.294;7.760;2023-04-24T05:22:04;15.98;;;11.55;;
30020;SDS011;16861;52.294;7.760;2023-04-24T05:24:33;15.80;;;11.48;;
30020;SDS011;16861;52.294;7.760;2023-04-24T05:27:00;17.52;;;10.48;;
30020;SDS011;16861;52.294;7.760;2023-04-24T05:29:28;17.33;;;11.13;;
30020;SDS011;16861;52.294;7.760;2023-04-24T05:31:57;14.02;;;10.35;;
30020;SDS011;16861;52.294;7.760;2023-04-24T05:34:24;15.50;;;10.38;;
30020;SDS011;16861;52.294;7.760;2023-04-24T05:36:51;15.10;;;10.48;;
30020;SDS011;16861;52.294;7.760;2023-04-24T05:39:17;14.50;;;11.45;;
30020;SDS011;16861;52.294;7.760;2023-04-24T05:41:45;14.45;;;10.98;;
30020;SDS011;16861;52.294;7.760;2023-04-24T05:44:12;16.33;;;11.43;;
30020;SDS011;16861;52.294;7.760;2023-04-24T05:46:38;17.25;;;12.60;;
30020;SDS011;16861;52.294;7.760;2023-04-24T05:49:05;21.25;;;12.48;;
30020;SDS011;16861;52.294;7.760;2023-04-24T05:51:32;16.27;;;13.07;;
30020;SDS011;16861;52.294;7.760;2023-04-24T05:53:58;15.95;;;12.02;;
30020;SDS011;16861;52.294;7.760;2023-04-24T05:56:25;17.60;;;13.05;;
30020;SDS011;16861;52.294;7.760;2023-04-24T05:58:51;18.88;;;13.40;;
30020;SDS011;16861;52.294;7.760;2023-04-24T06:01:18;15.43;;;13.13;;
30020;SDS011;16861;52.294;7.760;2023-04-24T06:03:45;19.60;;;14.27;;
30020;SDS011;16861;52.294;7.760;2023-04-24T06:06:12;22.33;;;14.77;;
30020;SDS011;16861;52.294;7.760;2023-04-24T06:08:39;20.00;;;15.48;;
30020;SDS011;16861;52.294;7.760;2023-04-24T06:11:07;16.08;;;13.88;;
30020;SDS011;16861;52.294;7.760;2023-04-24T06:13:34;18.13;;;14.10;;
30020;SDS011;16861;52.294;7.760;2023-04-24T06:16:01;23.33;;;15.90;;
30020;SDS011;16861;52.294;7.760;2023-04-24T06:18:27;24.27;;;15.13;;
30020;SDS011;16861;52.294;7.760;2023-04-24T06:20:54;18.38;;;14.98;;
30020;SDS011;16861;52.294;7.760;2023-04-24T06:23:21;20.23;;;14.85;;
30020;SDS011;16861;52.294;7.760;2023-04-24T06:25:48;20.50;;;14.95;;
30020;SDS011;16861;52.294;7.760;2023-04-24T06:28:14;21.40;;;15.55;;
30020;SDS011;16861;52.294;7.760;2023-04-24T06:30:41;19.30;;;14.82;;
30020;SDS011;16861;52.294;7.760;2023-04-24T06:33:07;21.40;;;16.27;;
30020;SDS011;16861;52.294;7.760;2023-04-24T06:35:46;19.35;;;15.40;;
30020;SDS011;16861;52.294;7.760;2023-04-24T06:38:13;19.40;;;13.25;;
30020;SDS011;16861;52.294;7.760;2023-04-24T06:40:40;19.35;;;13.93;;
30020;SDS011;16861;52.294;7.760;2023-04-24T06:43:06;18.63;;;13.75;;
30020;SDS011;16861;52.294;7.760;2023-04-24T06:45:33;20.38;;;13.88;;
30020;SDS011;16861;52.294;7.760;2023-04-24T06:48:00;18.48;;;14.40;;
30020;SDS011;16861;52.294;7.760;2023-04-24T06:50:26;16.73;;;12.80;;
30020;SDS011;16861;52.294;7.760;2023-04-24T06:52:53;17.52;;;13.48;;
30020;SDS011;16861;52.294;7.760;2023-04-24T06:55:20;17.08;;;12.55;;
30020;SDS011;16861;52.294;7.760;2023-04-24T06:57:46;17.35;;;12.30;;
30020;SDS011;16861;52.294;7.760;2023-04-24T07:00:13;19.90;;;14.10;;
30020;SDS011;16861;52.294;7.760;2023-04-24T07:02:40;17.40;;;12.80;;
30020;SDS011;16861;52.294;7.760;2023-04-24T07:05:07;15.25;;;13.20;;
30020;SDS011;16861;52.294;7.760;2023-04-24T07:07:34;21.98;;;14.32;;
30020;SDS011;16861;52.294;7.760;2023-04-24T07:10:04;20.30;;;14.15;;
30020;SDS011;16861;52.294;7.760;2023-04-24T07:12:31;21.25;;;12.90;;
30020;SDS011;16861;52.294;7.760;2023-04-24T07:14:59;19.45;;;14.32;;
30020;SDS011;16861;52.294;7.760;2023-04-24T07:17:27;15.82;;;13.63;;
30020;SDS011;16861;52.294;7.760;2023-04-24T07:19:53;18.52;;;12.55;;
30020;SDS011;16861;52.294;7.760;2023-04-24T07:22:20;18.67;;;12.95;;
30020;SDS011;16861;52.294;7.760;2023-04-24T07:24:47;13.77;;;12.13;;
30020;SDS011;16861;52.294;7.760;2023-04-24T07:27:13;21.63;;;12.82;;
30020;SDS011;16861;52.294;7.760;2023-04-24T07:29:41;14.75;;;10.88;;
30020;SDS011;16861;52.294;7.760;2023-04-24T07:32:08;14.85;;;10.93;;
30020;SDS011;16861;52.294;7.760;2023-04-24T07:34:35;12.48;;;10.10;;
30020;SDS011;16861;52.294;7.760;2023-04-24T07:37:02;15.13;;;9.35;;
30020;SDS011;16861;52.294;7.760;2023-04-24T07:39:29;11.00;;;9.20;;
30020;SDS011;16861;52.294;7.760;2023-04-24T07:41:56;14.27;;;9.82;;
30020;SDS011;16861;52.294;7.760;2023-04-24T07:44:23;10.50;;;8.27;;
30020;SDS011;16861;52.294;7.760;2023-04-24T07:46:49;11.38;;;8.52;;
30020;SDS011;16861;52.294;7.760;2023-04-24T07:49:16;10.70;;;8.13;;
30020;SDS011;16861;52.294;7.760;2023-04-24T07:51:45;8.32;;;7.38;;
30020;SDS011;16861;52.294;7.760;2023-04-24T07:54:12;9.95;;;7.57;;
30020;SDS011;16861;52.294;7.760;2023-04-24T07:56:39;7.78;;;6.70;;
30020;SDS011;16861;52.294;7.760;2023-04-24T07:59:09;10.65;;;7.57;;
30020;SDS011;16861;52.294;7.760;2023-04-24T08:01:36;8.75;;;6.57;;
30020;SDS011;16861;52.294;7.760;2023-04-24T08:04:03;9.10;;;7.28;;
30020;SDS011;16861;52.294;7.760;2023-04-24T08:06:30;7.45;;;6.75;;
30020;SDS011;16861;52.294;7.760;2023-04-24T08:08:59;10.05;;;8.05;;
30020;SDS011;16861;52.294;7.760;2023-04-24T08:11:26;9.50;;;8.38;;
30020;SDS011;16861;52.294;7.760;2023-04-24T08:13:53;12.48;;;8.75;;
30020;SDS011;16861;52.294;7.760;2023-04-24T08:16:21;9.85;;;8.57;;
30020;SDS011;16861;52.294;7.760;2023-04-24T08:18:50;10.57;;;8.98;;
30020;SDS011;16861;52.294;7.760;2023-04-24T08:21:17;12.48;;;9.90;;
30020;SDS011;16861;52.294;7.760;2023-04-24T08:23:45;11.75;;;9.23;;
30020;SDS011;16861;52.294;7.760;2023-04-24T08:26:12;13.32;;;9.20;;
30020;SDS011;16861;52.294;7.760;2023-04-24T08:28:39;10.13;;;9.00;;
30020;SDS011;16861;52.294;7.760;2023-04-24T08:31:06;10.48;;;9.40;;
30020;SDS011;16861;52.294;7.760;2023-04-24T08:33:33;11.25;;;8.95;;
30020;SDS011;16861;52.294;7.760;2023-04-24T08:36:02;10.38;;;8.68;;
30020;SDS011;16861;52.294;7.760;2023-04-24T08:38:30;9.95;;;8.43;;
30020;SDS011;16861;52.294;7.760;2023-04-24T08:40:58;9.57;;;8.63;;
30020;SDS011;16861;52.294;7.760;2023-04-24T08:43:26;9.27;;;8.38;;
30020;SDS011;16861;52.294;7.760;2023-04-24T08:45:56;9.40;;;8.48;;
30020;SDS011;16861;52.294;7.760;2023-04-24T08:48:23;9.20;;;8.30;;
30020;SDS011;16861;52.294;7.760;2023-04-24T08:50:57;13.68;;;8.77;;
30020;SDS011;16861;52.294;7.760;2023-04-24T08:53:25;8.68;;;7.53;;
30020;SDS011;16861;52.294;7.760;2023-04-24T08:55:52;8.13;;;7.32;;
30020;SDS011;16861;52.294;7.760;2023-04-24T08:58:22;10.77;;;7.75;;
30020;SDS011;16861;52.294;7.760;2023-04-24T09:00:53;9.45;;;8.10;;
30020;SDS011;16861;52.294;7.760;2023-04-24T09:03:21;8.05;;;7.25;;
30020;SDS011;16861;52.294;7.760;2023-04-24T09:05:48;7.93;;;7.18;;
30020;SDS011;16861;52.294;7.760;2023-04-24T09:08:17;8.25;;;7.45;;
30020;SDS011;16861;52.294;7.760;2023-04-24T09:10:45;10.60;;;7.28;;
30020;SDS011;16861;52.294;7.760;2023-04-24T09:13:15;8.30;;;7.45;;
30020;SDS011;16861;52.294;7.760;2023-04-24T09:15:42;9.10;;;7.47;;
30020;SDS011;16861;52.294;7.760;2023-04-24T09:18:08;8.20;;;6.85;;
30020;SDS011;16861;52.294;7.760;2023-04-24T09:20:35;7.53;;;6.50;;
30020;SDS011;16861;52.294;7.760;2023-04-24T09:23:30;8.15;;;6.35;;
30020;SDS011;16861;52.294;7.760;2023-04-24T09:25:58;8.13;;;7.10;;
30020;SDS011;16861;52.294;7.760;2023-04-24T09:28:27;7.03;;;5.57;;
30020;SDS011;16861;52.294;7.760;2023-04-24T09:31:03;6.30;;;5.55;;
30020;SDS011;16861;52.294;7.760;2023-04-24T09:33:30;7.25;;;5.45;;
30020;SDS011;16861;52.294;7.760;2023-04-24T09:35:56;8.50;;;5.10;;
30020;SDS011;16861;52.294;7.760;2023-04-24T09:38:32;6.65;;;4.78;;
30020;SDS011;16861;52.294;7.760;2023-04-24T09:41:00;4.78;;;3.72;;
30020;SDS011;16861;52.294;7.760;2023-04-24T09:43:34;5.63;;;4.15;;
30020;SDS011;16861;52.294;7.760;2023-04-24T09:46:05;7.18;;;5.13;;
30020;SDS011;16861;52.294;7.760;2023-04-24T09:48:37;7.00;;;4.72;;
30020;SDS011;16861;52.294;7.760;2023-04-24T09:51:04;7.68;;;4.75;;
30020;SDS011;16861;52.294;7.760;2023-04-24T09:53:37;6.80;;;5.10;;
30020;SDS011;16861;52.294;7.760;2023-04-24T09:56:08;6.00;;;4.75;;
30020;SDS011;16861;52.294;7.760;2023-04-24T09:58:36;4.30;;;3.83;;
30020;SDS011;16861;52.294;7.760;2023-04-24T10:01:03;4.15;;;3.40;;
30020;SDS011;16861;52.294;7.760;2023-04-24T10:03:30;3.15;;;2.85;;
30020;SDS011;16861;52.294;7.760;2023-04-24T10:05:59;3.47;;;2.60;;
30020;SDS011;16861;52.294;7.760;2023-04-24T10:08:26;3.22;;;2.47;;
30020;SDS011;16861;52.294;7.760;2023-04-24T10:10:52;2.92;;;2.45;;
30020;SDS011;16861;52.294;7.760;2023-04-24T10:13:19;2.30;;;2.10;;
30020;SDS011;16861;52.294;7.760;2023-04-24T10:15:46;1.98;;;1.60;;
30020;SDS011;16861;52.294;7.760;2023-04-24T10:18:14;2.47;;;1.70;;
30020;SDS011;16861;52.294;7.760;2023-04-24T10:20:42;2.88;;;2.10;;
30020;SDS011;16861;52.294;7.760;2023-04-24T10:23:09;2.08;;;1.88;;
30020;SDS011;16861;52.294;7.760;2023-04-24T10:25:37;2.58;;;2.20;;
30020;SDS011;16861;52.294;7.760;2023-04-24T10:28:04;3.78;;;2.30;;
30020;SDS011;16861;52.294;7.760;2023-04-24T10:30:34;3.25;;;2.35;;
30020;SDS011;16861;52.294;7.760;2023-04-24T10:33:02;2.97;;;1.92;;
30020;SDS011;16861;52.294;7.760;2023-04-24T10:35:37;3.40;;;2.38;;
30020;SDS011;16861;52.294;7.760;2023-04-24T10:38:08;4.93;;;2.58;;
30020;SDS011;16861;52.294;7.760;2023-04-24T10:40:37;2.58;;;2.33;;
30020;SDS011;16861;52.294;7.760;2023-04-24T10:43:05;3.15;;;2.10;;
30020;SDS011;16861;52.294;7.760;2023-04-24T10:45:34;3.08;;;1.95;;
30020;SDS011;16861;52.294;7.760;2023-04-24T10:48:02;5.05;;;2.00;;
30020;SDS011;16861;52.294;7.760;2023-04-24T10:50:42;3.15;;;2.13;;
30020;SDS011;16861;52.294;7.760;2023-04-24T10:53:17;3.10;;;1.85;;
30020;SDS011;16861;52.294;7.760;2023-04-24T10:55:46;2.38;;;1.60;;
30020;SDS011;16861;52.294;7.760;2023-04-24T10:58:14;2.25;;;1.70;;
30020;SDS011;16861;52.294;7.760;2023-04-24T11:00:43;2.67;;;1.77;;
30020;SDS011;16861;52.294;7.760;2023-04-24T11:03:23;2.78;;;2.17;;
30020;SDS011;16861;52.294;7.760;2023-04-24T11:08:39;5.82;;;3.55;;
30020;SDS011;16861;52.294;7.760;2023-04-24T11:16:20;11.95;;;6.60;;
30020;SDS011;16861;52.294;7.760;2023-04-24T11:19:04;9.75;;;7.00;;
30020;SDS011;16861;52.294;7.760;2023-04-24T11:30:16;8.57;;;6.57;;
30020;SDS011;16861;52.294;7.760;2023-04-24T11:35:13;7.70;;;5.80;;
30020;SDS011;16861;52.294;7.760;2023-04-24T11:37:43;8.13;;;6.30;;
30020;SDS011;16861;52.294;7.760;2023-04-24T11:40:34;8.93;;;6.28;;
30020;SDS011;16861;52.294;7.760;2023-04-24T11:43:04;9.07;;;6.07;;
30020;SDS011;16861;52.294;7.760;2023-04-24T11:45:33;8.85;;;5.90;;
30020;SDS011;16861;52.294;7.760;2023-04-24T11:48:00;9.32;;;6.65;;
30020;SDS011;16861;52.294;7.760;2023-04-24T11:50:29;8.38;;;6.30;;
30020;SDS011;16861;52.294;7.760;2023-04-24T11:52:57;9.52;;;5.65;;
30020;SDS011;16861;52.294;7.760;2023-04-24T11:55:26;7.95;;;5.47;;
30020;SDS011;16861;52.294;7.760;2023-04-24T11:57:55;9.65;;;5.20;;
30020;SDS011;16861;52.294;7.760;2023-04-24T12:00:24;5.93;;;4.55;;
30020;SDS011;16861;52.294;7.760;2023-04-24T12:03:03;8.02;;;4.95;;
30020;SDS011;16861;52.294;7.760;2023-04-24T12:05:34;8.35;;;5.13;;
30020;SDS011;16861;52.294;7.760;2023-04-24T12:08:01;11.98;;;5.80;;
30020;SDS011;16861;52.294;7.760;2023-04-24T12:10:29;9.27;;;6.07;;
30020;SDS011;16861;52.294;7.760;2023-04-24T12:12:57;7.35;;;5.13;;
30020;SDS011;16861;52.294;7.760;2023-04-24T12:15:25;11.23;;;5.38;;
30020;SDS011;16861;52.294;7.760;2023-04-24T12:17:52;10.68;;;5.28;;
30020;SDS011;16861;52.294;7.760;2023-04-24T12:20:24;10.18;;;4.97;;
30020;SDS011;16861;52.294;7.760;2023-04-24T12:22:59;8.32;;;4.40;;
30020;SDS011;16861;52.294;7.760;2023-04-24T12:25:27;8.02;;;4.10;;
30020;SDS011;16861;52.294;7.760;2023-04-24T12:30:49;8.32;;;3.50;;
30020;SDS011;16861;52.294;7.760;2023-04-24T12:33:19;5.38;;;3.42;;
30020;SDS011;16861;52.294;7.760;2023-04-24T12:35:47;9.02;;;3.90;;
30020;SDS011;16861;52.294;7.760;2023-04-24T12:38:21;6.90;;;3.72;;
30020;SDS011;16861;52.294;7.760;2023-04-24T12:41:00;9.85;;;4.13;;
30020;SDS011;16861;52.294;7.760;2023-04-24T12:43:29;9.45;;;3.95;;
30020;SDS011;16861;52.294;7.760;2023-04-24T12:45:55;8.48;;;3.75;;
30020;SDS011;16861;52.294;7.760;2023-04-24T12:48:23;8.15;;;3.90;;
30020;SDS011;16861;52.294;7.760;2023-04-24T12:50:49;8.30;;;4.05;;
30020;SDS011;16861;52.294;7.760;2023-04-24T12:53:16;11.02;;;3.63;;
30020;SDS011;16861;52.294;7.760;2023-04-24T12:55:43;10.63;;;4.38;;
30020;SDS011;16861;52.294;7.760;2023-04-24T12:58:10;10.27;;;4.47;;
30020;SDS011;16861;52.294;7.760;2023-04-24T13:00:38;8.10;;;3.83;;
30020;SDS011;16861;52.294;7.760;2023-04-24T13:03:07;10.10;;;4.00;;
30020;SDS011;16861;52.294;7.760;2023-04-24T13:05:42;5.57;;;3.55;;
30020;SDS011;16861;52.294;7.760;2023-04-24T13:08:09;11.32;;;3.60;;
30020;SDS011;16861;52.294;7.760;2023-04-24T13:10:36;10.70;;;4.47;;
30020;SDS011;16861;52.294;7.760;2023-04-24T13:13:02;9.30;;;3.83;;
30020;SDS011;16861;52.294;7.760;2023-04-24T13:15:29;9.40;;;3.92;;
30020;SDS011;16861;52.294;7.760;2023-04-24T13:17:56;7.68;;;3.65;;
30020;SDS011;16861;52.294;7.760;2023-04-24T13:20:23;11.85;;;4.25;;
30020;SDS011;16861;52.294;7.760;2023-04-24T13:22:49;8.70;;;3.97;;
30020;SDS011;16861;52.294;7.760;2023-04-24T13:25:16;7.78;;;4.25;;
30020;SDS011;16861;52.294;7.760;2023-04-24T13:27:43;9.27;;;3.88;;
30020;SDS011;16861;52.294;7.760;2023-04-24T13:30:10;9.77;;;4.47;;
30020;SDS011;16861;52.294;7.760;2023-04-24T13:32:36;9.93;;;3.90;;
30020;SDS011;16861;52.294;7.760;2023-04-24T13:35:03;9.93;;;3.88;;
30020;SDS011;16861;52.294;7.760;2023-04-24T13:37:30;8.55;;;3.80;;
30020;SDS011;16861;52.294;7.760;2023-04-24T13:39:57;7.28;;;3.15;;
30020;SDS011;16861;52.294;7.760;2023-04-24T13:42:23;8.80;;;3.50;;
30020;SDS011;16861;52.294;7.760;2023-04-24T13:44:50;6.10;;;2.80;;
30020;SDS011;16861;52.294;7.760;2023-04-24T13:47:17;6.70;;;2.55;;
30020;SDS011;16861;52.294;7.760;2023-04-24T13:49:44;7.35;;;3.28;;
30020;SDS011;16861;52.294;7.760;2023-04-24T13:52:10;10.35;;;2.30;;
30020;SDS011;16861;52.294;7.760;2023-04-24T13:54:37;4.78;;;2.50;;
30020;SDS011;16861;52.294;7.760;2023-04-24T13:57:03;8.23;;;3.00;;
30020;SDS011;16861;52.294;7.760;2023-04-24T13:59:30;6.82;;;2.97;;
30020;SDS011;16861;52.294;7.760;2023-04-24T14:01:57;7.45;;;2.60;;
30020;SDS011;16861;52.294;7.760;2023-04-24T14:04:24;7.85;;;3.00;;
30020;SDS011;16861;52.294;7.760;2023-04-24T14:06:51;7.18;;;2.65;;
30020;SDS011;16861;52.294;7.760;2023-04-24T14:09:17;5.05;;;2.75;;
30020;SDS011;16861;52.294;7.760;2023-04-24T14:11:44;7.10;;;2.83;;
30020;SDS011;16861;52.294;7.760;2023-04-24T14:14:10;6.75;;;2.83;;
30020;SDS011;16861;52.294;7.760;2023-04-24T14:16:37;8.90;;;3.13;;
30020;SDS011;16861;52.294;7.760;2023-04-24T14:19:04;7.13;;;3.20;;
30020;SDS011;16861;52.294;7.760;2023-04-24T14:21:32;8.82;;;3.00;;
30020;SDS011;16861;52.294;7.760;2023-04-24T14:23:58;4.65;;;2.50;;
30020;SDS011;16861;52.294;7.760;2023-04-24T14:26:25;10.45;;;3.60;;
30020;SDS011;16861;52.294;7.760;2023-04-24T14:28:51;5.78;;;2.60;;
30020;SDS011;16861;52.294;7.760;2023-04-24T14:31:33;6.20;;;2.67;;
30020;SDS011;16861;52.294;7.760;2023-04-24T14:33:59;6.75;;;2.63;;
30020;SDS011;16861;52.294;7.760;2023-04-24T14:36:26;7.70;;;2.97;;
30020;SDS011;16861;52.294;7.760;2023-04-24T14:38:52;6.00;;;2.65;;
30020;SDS011;16861;52.294;7.760;2023-04-24T14:41:19;6.93;;;2.70;;
30020;SDS011;16861;52.294;7.760;2023-04-24T14:43:46;5.13;;;2.63;;
30020;SDS011;16861;52.294;7.760;2023-04-24T14:46:13;5.32;;;2.35;;
30020;SDS011;16861;52.294;7.760;2023-04-24T14:48:39;3.47;;;2.30;;
30020;SDS011;16861;52.294;7.760;2023-04-24T14:51:06;8.20;;;2.83;;
30020;SDS011;16861;52.294;7.760;2023-04-24T14:53:33;7.75;;;2.78;;
30020;SDS011;16861;52.294;7.760;2023-04-24T14:56:00;5.68;;;2.30;;
30020;SDS011;16861;52.294;7.760;2023-04-24T14:58:26;4.15;;;2.42;;
30020;SDS011;16861;52.294;7.760;2023-04-24T15:00:53;3.58;;;2.05;;
30020;SDS011;16861;52.294;7.760;2023-04-24T15:03:20;5.38;;;2.30;;
30020;SDS011;16861;52.294;7.760;2023-04-24T15:05:48;6.05;;;2.25;;
30020;SDS011;16861;52.294;7.760;2023-04-24T15:08:15;7.88;;;2.28;;